KNEL/NEL METAR and TAF weather

Enter ICAO airport designator
Station Type Date Time Source
KNEL METAR 2019/11/13 02:00 UTC NOAA

KNEL 130200Z AUTO 31010G15KT 270V340 10SM CLR M02/M12 A3014 RMK AO2 SLP205 T10171117 FZRANO $


Station Type Date Time Source
KNEL Decoded METAR 2019/11/13 02:00 UTC NOAA

Lakehurst Naval Air Station, NJ, United States (KNEL) 40-02N 074-19W 24M
Nov 12, 2019 - 09:00 PM EST / 2019.11.13 0200 UTC
Wind: from the NW (310 degrees) at 12 MPH (10 KT) gusting to 17 MPH (15 KT) (direction variable):0
Visibility: 10 mile(s):0
Sky conditions: clear
Temperature: 28.9 F (-1.7 C)
Windchill: 19 F (-7 C):1
Dew Point: 10.9 F (-11.7 C)
Relative Humidity: 46%
Pressure (altimeter): 30.14 in. Hg (1020 hPa)
ob: KNEL 130200Z AUTO 31010G15KT 270V340 10SM CLR M02/M12 A3014 RMK AO2 SLP205 T10171117 FZRANO
cycle: 2

Station Type Date Time Source
KNEL TAF UTC NOAA

Error!

Example: see airport list